sensor_id;sensor_type;location;lat;lon;timestamp;P1;durP1;ratioP1;P2;durP2;ratioP2
20170;SDS011;10245;51.344;6.620;2023-02-11T00:00:27;41.13;;;25.50;;
20170;SDS011;10245;51.344;6.620;2023-02-11T00:02:50;37.90;;;23.85;;
20170;SDS011;10245;51.344;6.620;2023-02-11T00:05:14;40.78;;;24.67;;
20170;SDS011;10245;51.344;6.620;2023-02-11T00:07:37;40.20;;;24.92;;
20170;SDS011;10245;51.344;6.620;2023-02-11T00:10:00;37.63;;;23.40;;
20170;SDS011;10245;51.344;6.620;2023-02-11T00:12:25;42.80;;;24.92;;
20170;SDS011;10245;51.344;6.620;2023-02-11T00:14:48;46.38;;;24.48;;
20170;SDS011;10245;51.344;6.620;2023-02-11T00:17:13;37.50;;;23.10;;
20170;SDS011;10245;51.344;6.620;2023-02-11T00:19:37;41.13;;;23.90;;
20170;SDS011;10245;51.344;6.620;2023-02-11T00:22:00;36.30;;;23.23;;
20170;SDS011;10245;51.344;6.620;2023-02-11T00:24:23;39.72;;;23.50;;
20170;SDS011;10245;51.344;6.620;2023-02-11T00:26:46;38.33;;;23.23;;
20170;SDS011;10245;51.344;6.620;2023-02-11T00:29:10;37.78;;;22.40;;
20170;SDS011;10245;51.344;6.620;2023-02-11T00:31:34;42.60;;;23.10;;
20170;SDS011;10245;51.344;6.620;2023-02-11T00:34:00;42.92;;;23.27;;
20170;SDS011;10245;51.344;6.620;2023-02-11T00:36:24;35.28;;;21.23;;
20170;SDS011;10245;51.344;6.620;2023-02-11T00:38:50;32.70;;;20.83;;
20170;SDS011;10245;51.344;6.620;2023-02-11T00:41:16;37.05;;;21.92;;
20170;SDS011;10245;51.344;6.620;2023-02-11T00:43:40;36.33;;;20.92;;
20170;SDS011;10245;51.344;6.620;2023-02-11T00:46:04;39.90;;;22.10;;
20170;SDS011;10245;51.344;6.620;2023-02-11T00:48:27;31.33;;;21.13;;
20170;SDS011;10245;51.344;6.620;2023-02-11T00:50:55;34.92;;;20.95;;
20170;SDS011;10245;51.344;6.620;2023-02-11T00:53:19;34.15;;;19.98;;
20170;SDS011;10245;51.344;6.620;2023-02-11T00:55:42;36.10;;;21.83;;
20170;SDS011;10245;51.344;6.620;2023-02-11T00:58:05;34.63;;;20.80;;
20170;SDS011;10245;51.344;6.620;2023-02-11T01:00:29;38.70;;;22.35;;
20170;SDS011;10245;51.344;6.620;2023-02-11T01:02:52;31.13;;;20.15;;
20170;SDS011;10245;51.344;6.620;2023-02-11T01:05:16;35.78;;;21.23;;
20170;SDS011;10245;51.344;6.620;2023-02-11T01:07:43;34.53;;;20.58;;
20170;SDS011;10245;51.344;6.620;2023-02-11T01:10:06;39.08;;;22.17;;
20170;SDS011;10245;51.344;6.620;2023-02-11T01:12:30;36.10;;;21.25;;
20170;SDS011;10245;51.344;6.620;2023-02-11T01:14:56;36.42;;;20.85;;
20170;SDS011;10245;51.344;6.620;2023-02-11T01:17:20;37.80;;;21.48;;
20170;SDS011;10245;51.344;6.620;2023-02-11T01:19:43;41.70;;;22.05;;
20170;SDS011;10245;51.344;6.620;2023-02-11T01:22:07;34.17;;;20.75;;
20170;SDS011;10245;51.344;6.620;2023-02-11T01:24:31;36.60;;;21.35;;
20170;SDS011;10245;51.344;6.620;2023-02-11T01:26:55;35.45;;;20.52;;
20170;SDS011;10245;51.344;6.620;2023-02-11T01:29:18;34.85;;;21.15;;
20170;SDS011;10245;51.344;6.620;2023-02-11T01:31:41;42.67;;;23.50;;
20170;SDS011;10245;51.344;6.620;2023-02-11T01:34:05;38.90;;;20.63;;
20170;SDS011;10245;51.344;6.620;2023-02-11T01:36:30;33.15;;;20.63;;
20170;SDS011;10245;51.344;6.620;2023-02-11T01:38:54;38.80;;;20.75;;
20170;SDS011;10245;51.344;6.620;2023-02-11T01:41:18;39.22;;;21.73;;
20170;SDS011;10245;51.344;6.620;2023-02-11T01:43:44;34.05;;;20.98;;
20170;SDS011;10245;51.344;6.620;2023-02-11T01:46:23;35.90;;;20.13;;
20170;SDS011;10245;51.344;6.620;2023-02-11T01:48:54;38.58;;;20.60;;
20170;SDS011;10245;51.344;6.620;2023-02-11T01:51:23;34.33;;;21.20;;
20170;SDS011;10245;51.344;6.620;2023-02-11T01:53:49;36.92;;;21.23;;
20170;SDS011;10245;51.344;6.620;2023-02-11T01:56:33;33.65;;;21.52;;
20170;SDS011;10245;51.344;6.620;2023-02-11T01:59:19;42.67;;;22.08;;
20170;SDS011;10245;51.344;6.620;2023-02-11T02:01:49;35.95;;;22.13;;
20170;SDS011;10245;51.344;6.620;2023-02-11T02:04:18;34.33;;;19.83;;
20170;SDS011;10245;51.344;6.620;2023-02-11T02:06:51;32.80;;;21.02;;
20170;SDS011;10245;51.344;6.620;2023-02-11T02:09:21;34.92;;;20.77;;
20170;SDS011;10245;51.344;6.620;2023-02-11T02:11:49;37.30;;;21.50;;
20170;SDS011;10245;51.344;6.620;2023-02-11T02:14:13;35.22;;;22.13;;
20170;SDS011;10245;51.344;6.620;2023-02-11T02:16:36;36.60;;;21.45;;
20170;SDS011;10245;51.344;6.620;2023-02-11T02:19:04;37.42;;;23.15;;
20170;SDS011;10245;51.344;6.620;2023-02-11T02:25:06;37.80;;;20.15;;
20170;SDS011;10245;51.344;6.620;2023-02-11T02:27:51;40.45;;;22.35;;
20170;SDS011;10245;51.344;6.620;2023-02-11T02:30:32;35.85;;;20.60;;
20170;SDS011;10245;51.344;6.620;2023-02-11T02:33:14;34.63;;;20.65;;
20170;SDS011;10245;51.344;6.620;2023-02-11T02:35:47;40.75;;;20.70;;
20170;SDS011;10245;51.344;6.620;2023-02-11T02:38:26;34.33;;;21.13;;
20170;SDS011;10245;51.344;6.620;2023-02-11T02:40:54;31.90;;;20.08;;
20170;SDS011;10245;51.344;6.620;2023-02-11T02:43:21;41.22;;;21.83;;
20170;SDS011;10245;51.344;6.620;2023-02-11T02:45:47;38.05;;;21.35;;
20170;SDS011;10245;51.344;6.620;2023-02-11T02:48:23;31.10;;;19.67;;
20170;SDS011;10245;51.344;6.620;2023-02-11T02:50:48;35.30;;;20.02;;
20170;SDS011;10245;51.344;6.620;2023-02-11T02:53:17;35.10;;;20.35;;
20170;SDS011;10245;51.344;6.620;2023-02-11T02:55:53;36.35;;;21.13;;
20170;SDS011;10245;51.344;6.620;2023-02-11T02:58:28;37.40;;;20.75;;
20170;SDS011;10245;51.344;6.620;2023-02-11T03:01:18;37.17;;;20.85;;
20170;SDS011;10245;51.344;6.620;2023-02-11T03:03:53;37.00;;;20.85;;
20170;SDS011;10245;51.344;6.620;2023-02-11T03:06:29;31.95;;;20.45;;
20170;SDS011;10245;51.344;6.620;2023-02-11T03:08:57;33.25;;;20.48;;
20170;SDS011;10245;51.344;6.620;2023-02-11T03:11:31;31.40;;;19.08;;
20170;SDS011;10245;51.344;6.620;2023-02-11T03:13:57;32.25;;;20.52;;
20170;SDS011;10245;51.344;6.620;2023-02-11T03:16:25;39.60;;;21.15;;
20170;SDS011;10245;51.344;6.620;2023-02-11T03:18:51;37.53;;;19.98;;
20170;SDS011;10245;51.344;6.620;2023-02-11T03:21:21;39.50;;;20.83;;
20170;SDS011;10245;51.344;6.620;2023-02-11T03:23:46;37.25;;;21.38;;
20170;SDS011;10245;51.344;6.620;2023-02-11T03:26:16;37.15;;;19.88;;
20170;SDS011;10245;51.344;6.620;2023-02-11T03:28:52;39.35;;;20.95;;
20170;SDS011;10245;51.344;6.620;2023-02-11T03:31:25;36.05;;;21.48;;
20170;SDS011;10245;51.344;6.620;2023-02-11T03:33:58;39.47;;;21.75;;
20170;SDS011;10245;51.344;6.620;2023-02-11T03:36:31;39.40;;;21.60;;
20170;SDS011;10245;51.344;6.620;2023-02-11T03:39:01;37.20;;;20.98;;
20170;SDS011;10245;51.344;6.620;2023-02-11T03:41:26;39.25;;;21.67;;
20170;SDS011;10245;51.344;6.620;2023-02-11T03:43:52;34.88;;;22.00;;
20170;SDS011;10245;51.344;6.620;2023-02-11T03:46:20;35.65;;;21.15;;
20170;SDS011;10245;51.344;6.620;2023-02-11T03:48:50;35.25;;;21.50;;
20170;SDS011;10245;51.344;6.620;2023-02-11T03:51:19;40.30;;;20.90;;
20170;SDS011;10245;51.344;6.620;2023-02-11T03:53:45;35.80;;;21.27;;
20170;SDS011;10245;51.344;6.620;2023-02-11T03:56:10;38.08;;;20.15;;
20170;SDS011;10245;51.344;6.620;2023-02-11T03:58:37;36.00;;;19.98;;
20170;SDS011;10245;51.344;6.620;2023-02-11T04:01:00;38.65;;;21.02;;
20170;SDS011;10245;51.344;6.620;2023-02-11T04:03:25;34.42;;;20.02;;
20170;SDS011;10245;51.344;6.620;2023-02-11T04:05:49;38.55;;;21.10;;
20170;SDS011;10245;51.344;6.620;2023-02-11T04:08:13;34.33;;;20.02;;
20170;SDS011;10245;51.344;6.620;2023-02-11T04:10:37;36.35;;;20.40;;
20170;SDS011;10245;51.344;6.620;2023-02-11T04:13:00;38.17;;;21.15;;
20170;SDS011;10245;51.344;6.620;2023-02-11T04:15:24;40.35;;;21.42;;
20170;SDS011;10245;51.344;6.620;2023-02-11T04:17:47;40.65;;;21.45;;
20170;SDS011;10245;51.344;6.620;2023-02-11T04:20:11;34.83;;;19.98;;
20170;SDS011;10245;51.344;6.620;2023-02-11T04:22:35;36.35;;;21.23;;
20170;SDS011;10245;51.344;6.620;2023-02-11T04:25:00;37.17;;;20.90;;
20170;SDS011;10245;51.344;6.620;2023-02-11T04:27:24;44.63;;;23.30;;
20170;SDS011;10245;51.344;6.620;2023-02-11T04:29:47;43.75;;;23.52;;
20170;SDS011;10245;51.344;6.620;2023-02-11T04:32:10;39.45;;;22.88;;
20170;SDS011;10245;51.344;6.620;2023-02-11T04:34:34;46.50;;;23.38;;
20170;SDS011;10245;51.344;6.620;2023-02-11T04:36:57;40.92;;;22.38;;
20170;SDS011;10245;51.344;6.620;2023-02-11T04:39:20;49.30;;;26.20;;
20170;SDS011;10245;51.344;6.620;2023-02-11T04:41:45;43.42;;;24.38;;
20170;SDS011;10245;51.344;6.620;2023-02-11T04:44:09;48.85;;;25.88;;
20170;SDS011;10245;51.344;6.620;2023-02-11T04:46:32;45.72;;;25.20;;
20170;SDS011;10245;51.344;6.620;2023-02-11T04:48:57;51.05;;;27.92;;
20170;SDS011;10245;51.344;6.620;2023-02-11T04:51:20;49.22;;;28.30;;
20170;SDS011;10245;51.344;6.620;2023-02-11T04:53:43;51.85;;;28.25;;
20170;SDS011;10245;51.344;6.620;2023-02-11T04:56:07;52.63;;;26.73;;
20170;SDS011;10245;51.344;6.620;2023-02-11T04:58:31;46.00;;;25.17;;
20170;SDS011;10245;51.344;6.620;2023-02-11T05:00:55;53.38;;;28.58;;
20170;SDS011;10245;51.344;6.620;2023-02-11T05:03:28;51.22;;;27.00;;
20170;SDS011;10245;51.344;6.620;2023-02-11T05:05:51;57.55;;;28.77;;
20170;SDS011;10245;51.344;6.620;2023-02-11T05:08:15;54.97;;;28.20;;
20170;SDS011;10245;51.344;6.620;2023-02-11T05:10:38;52.15;;;26.50;;
20170;SDS011;10245;51.344;6.620;2023-02-11T05:13:02;52.75;;;27.38;;
20170;SDS011;10245;51.344;6.620;2023-02-11T05:15:27;54.15;;;27.08;;
20170;SDS011;10245;51.344;6.620;2023-02-11T05:17:51;48.65;;;26.92;;
20170;SDS011;10245;51.344;6.620;2023-02-11T05:20:14;52.47;;;27.48;;
20170;SDS011;10245;51.344;6.620;2023-02-11T05:22:38;52.47;;;28.10;;
20170;SDS011;10245;51.344;6.620;2023-02-11T05:25:01;58.55;;;27.63;;
20170;SDS011;10245;51.344;6.620;2023-02-11T05:27:25;58.00;;;27.90;;
20170;SDS011;10245;51.344;6.620;2023-02-11T05:29:48;52.05;;;28.23;;
20170;SDS011;10245;51.344;6.620;2023-02-11T05:32:13;56.67;;;27.60;;
20170;SDS011;10245;51.344;6.620;2023-02-11T05:34:37;50.38;;;25.30;;
20170;SDS011;10245;51.344;6.620;2023-02-11T05:37:00;46.72;;;24.75;;
20170;SDS011;10245;51.344;6.620;2023-02-11T05:39:24;41.22;;;24.77;;
20170;SDS011;10245;51.344;6.620;2023-02-11T05:41:47;45.97;;;25.25;;
20170;SDS011;10245;51.344;6.620;2023-02-11T05:44:10;53.22;;;25.52;;
20170;SDS011;10245;51.344;6.620;2023-02-11T05:46:34;51.20;;;25.77;;
20170;SDS011;10245;51.344;6.620;2023-02-11T05:48:59;44.90;;;25.35;;
20170;SDS011;10245;51.344;6.620;2023-02-11T05:51:22;47.53;;;23.00;;
20170;SDS011;10245;51.344;6.620;2023-02-11T05:53:46;42.63;;;23.48;;
20170;SDS011;10245;51.344;6.620;2023-02-11T05:56:09;42.85;;;23.70;;
20170;SDS011;10245;51.344;6.620;2023-02-11T05:58:32;51.22;;;23.80;;
20170;SDS011;10245;51.344;6.620;2023-02-11T06:00:56;53.97;;;24.30;;
20170;SDS011;10245;51.344;6.620;2023-02-11T06:03:19;43.97;;;23.30;;
20170;SDS011;10245;51.344;6.620;2023-02-11T06:05:45;45.00;;;23.75;;
20170;SDS011;10245;51.344;6.620;2023-02-11T06:08:09;42.85;;;21.88;;
20170;SDS011;10245;51.344;6.620;2023-02-11T06:10:37;50.38;;;25.30;;
20170;SDS011;10245;51.344;6.620;2023-02-11T06:13:02;43.05;;;22.98;;
20170;SDS011;10245;51.344;6.620;2023-02-11T06:15:26;45.72;;;24.10;;
20170;SDS011;10245;51.344;6.620;2023-02-11T06:17:49;49.03;;;24.25;;
20170;SDS011;10245;51.344;6.620;2023-02-11T06:20:13;52.20;;;23.55;;
20170;SDS011;10245;51.344;6.620;2023-02-11T06:22:37;47.03;;;23.95;;
20170;SDS011;10245;51.344;6.620;2023-02-11T06:25:01;53.65;;;24.35;;
20170;SDS011;10245;51.344;6.620;2023-02-11T06:27:24;51.33;;;24.10;;
20170;SDS011;10245;51.344;6.620;2023-02-11T06:29:47;52.60;;;24.80;;
20170;SDS011;10245;51.344;6.620;2023-02-11T06:32:12;47.72;;;24.10;;
20170;SDS011;10245;51.344;6.620;2023-02-11T06:34:56;47.60;;;23.08;;
20170;SDS011;10245;51.344;6.620;2023-02-11T06:37:20;53.25;;;24.58;;
20170;SDS011;10245;51.344;6.620;2023-02-11T06:39:45;48.28;;;23.92;;
20170;SDS011;10245;51.344;6.620;2023-02-11T06:42:08;52.42;;;23.83;;
20170;SDS011;10245;51.344;6.620;2023-02-11T06:44:31;53.90;;;25.42;;
20170;SDS011;10245;51.344;6.620;2023-02-11T06:46:55;62.75;;;24.88;;
20170;SDS011;10245;51.344;6.620;2023-02-11T06:49:18;52.78;;;24.00;;
20170;SDS011;10245;51.344;6.620;2023-02-11T06:51:41;54.92;;;25.15;;
20170;SDS011;10245;51.344;6.620;2023-02-11T06:54:05;59.75;;;26.15;;
20170;SDS011;10245;51.344;6.620;2023-02-11T06:56:30;58.78;;;26.15;;
20170;SDS011;10245;51.344;6.620;2023-02-11T06:58:54;57.20;;;26.33;;
20170;SDS011;10245;51.344;6.620;2023-02-11T07:01:18;59.17;;;26.15;;
20170;SDS011;10245;51.344;6.620;2023-02-11T07:03:43;59.83;;;27.20;;
20170;SDS011;10245;51.344;6.620;2023-02-11T07:06:07;59.75;;;25.20;;
20170;SDS011;10245;51.344;6.620;2023-02-11T07:08:36;51.08;;;25.40;;
20170;SDS011;10245;51.344;6.620;2023-02-11T07:11:00;52.97;;;25.10;;
20170;SDS011;10245;51.344;6.620;2023-02-11T07:13:33;51.45;;;24.50;;
20170;SDS011;10245;51.344;6.620;2023-02-11T07:15:56;60.83;;;24.88;;
20170;SDS011;10245;51.344;6.620;2023-02-11T07:18:20;54.50;;;24.80;;
20170;SDS011;10245;51.344;6.620;2023-02-11T07:20:44;50.63;;;25.15;;
20170;SDS011;10245;51.344;6.620;2023-02-11T07:23:07;53.20;;;24.90;;
20170;SDS011;10245;51.344;6.620;2023-02-11T07:25:30;54.63;;;23.85;;
20170;SDS011;10245;51.344;6.620;2023-02-11T07:27:54;52.55;;;24.98;;
20170;SDS011;10245;51.344;6.620;2023-02-11T07:30:19;62.80;;;25.20;;
20170;SDS011;10245;51.344;6.620;2023-02-11T07:32:43;56.85;;;25.13;;
20170;SDS011;10245;51.344;6.620;2023-02-11T07:35:07;53.65;;;26.35;;
20170;SDS011;10245;51.344;6.620;2023-02-11T07:37:31;60.50;;;26.45;;
20170;SDS011;10245;51.344;6.620;2023-02-11T07:39:55;65.22;;;25.88;;
20170;SDS011;10245;51.344;6.620;2023-02-11T07:42:18;58.22;;;26.25;;
20170;SDS011;10245;51.344;6.620;2023-02-11T07:44:42;58.17;;;27.23;;
20170;SDS011;10245;51.344;6.620;2023-02-11T07:47:06;56.88;;;26.95;;
20170;SDS011;10245;51.344;6.620;2023-02-11T07:49:31;58.33;;;26.48;;
20170;SDS011;10245;51.344;6.620;2023-02-11T07:51:54;64.75;;;27.42;;
20170;SDS011;10245;51.344;6.620;2023-02-11T07:54:18;63.85;;;28.25;;
20170;SDS011;10245;51.344;6.620;2023-02-11T07:56:41;71.80;;;29.00;;
20170;SDS011;10245;51.344;6.620;2023-02-11T07:59:05;64.75;;;27.75;;
20170;SDS011;10245;51.344;6.620;2023-02-11T08:01:29;64.93;;;29.38;;
20170;SDS011;10245;51.344;6.620;2023-02-11T08:03:54;60.63;;;26.95;;
20170;SDS011;10245;51.344;6.620;2023-02-11T08:06:20;58.60;;;26.13;;
20170;SDS011;10245;51.344;6.620;2023-02-11T08:08:45;60.83;;;25.88;;
20170;SDS011;10245;51.344;6.620;2023-02-11T08:11:10;64.68;;;28.30;;
20170;SDS011;10245;51.344;6.620;2023-02-11T08:13:35;64.72;;;28.27;;
20170;SDS011;10245;51.344;6.620;2023-02-11T08:16:00;65.22;;;28.00;;
20170;SDS011;10245;51.344;6.620;2023-02-11T08:18:23;56.95;;;27.67;;
20170;SDS011;10245;51.344;6.620;2023-02-11T08:20:48;72.75;;;28.40;;
20170;SDS011;10245;51.344;6.620;2023-02-11T08:23:12;64.68;;;27.88;;
20170;SDS011;10245;51.344;6.620;2023-02-11T08:25:35;67.10;;;29.10;;
20170;SDS011;10245;51.344;6.620;2023-02-11T08:27:58;65.22;;;30.23;;
20170;SDS011;10245;51.344;6.620;2023-02-11T08:30:22;69.63;;;27.92;;
20170;SDS011;10245;51.344;6.620;2023-02-11T08:32:47;69.95;;;30.70;;
20170;SDS011;10245;51.344;6.620;2023-02-11T08:35:11;60.75;;;29.40;;
20170;SDS011;10245;51.344;6.620;2023-02-11T08:37:35;63.58;;;29.90;;
20170;SDS011;10245;51.344;6.620;2023-02-11T08:39:59;65.22;;;29.50;;
20170;SDS011;10245;51.344;6.620;2023-02-11T08:42:22;65.10;;;31.17;;
20170;SDS011;10245;51.344;6.620;2023-02-11T08:44:45;73.88;;;29.17;;
20170;SDS011;10245;51.344;6.620;2023-02-11T08:47:08;67.97;;;29.92;;
20170;SDS011;10245;51.344;6.620;2023-02-11T08:49:32;67.80;;;29.08;;
20170;SDS011;10245;51.344;6.620;2023-02-11T08:51:55;62.80;;;30.17;;
20170;SDS011;10245;51.344;6.620;2023-02-11T08:54:25;64.43;;;31.05;;
20170;SDS011;10245;51.344;6.620;2023-02-11T08:56:49;70.07;;;31.08;;
20170;SDS011;10245;51.344;6.620;2023-02-11T08:59:13;72.07;;;30.40;;
20170;SDS011;10245;51.344;6.620;2023-02-11T09:01:38;60.83;;;29.50;;
20170;SDS011;10245;51.344;6.620;2023-02-11T09:04:01;68.15;;;32.80;;
20170;SDS011;10245;51.344;6.620;2023-02-11T09:06:25;71.25;;;30.45;;
20170;SDS011;10245;51.344;6.620;2023-02-11T09:08:49;69.70;;;31.02;;
20170;SDS011;10245;51.344;6.620;2023-02-11T09:11:17;71.03;;;31.05;;
20170;SDS011;10245;51.344;6.620;2023-02-11T09:13:43;64.10;;;32.35;;
20170;SDS011;10245;51.344;6.620;2023-02-11T09:16:07;68.40;;;30.50;;
20170;SDS011;10245;51.344;6.620;2023-02-11T09:18:38;69.85;;;31.90;;
20170;SDS011;10245;51.344;6.620;2023-02-11T09:21:01;68.50;;;32.72;;
20170;SDS011;10245;51.344;6.620;2023-02-11T09:23:26;66.30;;;30.45;;
20170;SDS011;10245;51.344;6.620;2023-02-11T09:25:49;67.93;;;31.30;;
20170;SDS011;10245;51.344;6.620;2023-02-11T09:28:14;63.38;;;29.77;;
20170;SDS011;10245;51.344;6.620;2023-02-11T09:30:37;59.38;;;29.55;;
20170;SDS011;10245;51.344;6.620;2023-02-11T09:33:01;73.75;;;32.05;;
20170;SDS011;10245;51.344;6.620;2023-02-11T09:35:25;66.28;;;30.08;;
20170;SDS011;10245;51.344;6.620;2023-02-11T09:37:48;65.38;;;31.98;;
20170;SDS011;10245;51.344;6.620;2023-02-11T09:40:11;67.95;;;31.38;;
20170;SDS011;10245;51.344;6.620;2023-02-11T09:42:39;67.00;;;31.85;;
20170;SDS011;10245;51.344;6.620;2023-02-11T09:45:11;67.60;;;32.42;;
20170;SDS011;10245;51.344;6.620;2023-02-11T09:47:41;66.95;;;31.75;;
20170;SDS011;10245;51.344;6.620;2023-02-11T09:50:11;68.53;;;33.63;;
20170;SDS011;10245;51.344;6.620;2023-02-11T09:52:39;68.72;;;33.15;;
20170;SDS011;10245;51.344;6.620;2023-02-11T09:55:11;63.70;;;31.73;;
20170;SDS011;10245;51.344;6.620;2023-02-11T09:57:42;63.70;;;31.63;;
20170;SDS011;10245;51.344;6.620;2023-02-11T10:00:16;73.18;;;33.58;;
20170;SDS011;10245;51.344;6.620;2023-02-11T10:02:49;74.38;;;33.42;;
20170;SDS011;10245;51.344;6.620;2023-02-11T10:05:36;72.00;;;34.13;;
20170;SDS011;10245;51.344;6.620;2023-02-11T10:08:14;70.07;;;33.22;;
20170;SDS011;10245;51.344;6.620;2023-02-11T10:10:49;78.65;;;34.00;;
20170;SDS011;10245;51.344;6.620;2023-02-11T10:13:20;74.03;;;35.47;;
20170;SDS011;10245;51.344;6.620;2023-02-11T10:16:08;77.55;;;33.63;;
20170;SDS011;10245;51.344;6.620;2023-02-11T10:18:51;64.38;;;32.35;;
20170;SDS011;10245;51.344;6.620;2023-02-11T10:21:35;79.15;;;34.08;;
20170;SDS011;10245;51.344;6.620;2023-02-11T10:24:11;67.60;;;34.80;;
20170;SDS011;10245;51.344;6.620;2023-02-11T10:26:37;66.68;;;34.40;;
20170;SDS011;10245;51.344;6.620;2023-02-11T10:29:04;66.10;;;34.55;;
20170;SDS011;10245;51.344;6.620;2023-02-11T10:31:37;68.20;;;32.95;;
20170;SDS011;10245;51.344;6.620;2023-02-11T10:34:06;69.93;;;33.95;;
20170;SDS011;10245;51.344;6.620;2023-02-11T10:36:34;72.97;;;35.03;;
20170;SDS011;10245;51.344;6.620;2023-02-11T10:39:08;75.35;;;33.95;;
20170;SDS011;10245;51.344;6.620;2023-02-11T10:41:35;70.03;;;35.53;;
20170;SDS011;10245;51.344;6.620;2023-02-11T10:44:05;74.00;;;34.53;;
20170;SDS011;10245;51.344;6.620;2023-02-11T10:46:30;82.18;;;35.72;;
20170;SDS011;10245;51.344;6.620;2023-02-11T10:48:59;72.22;;;34.30;;
20170;SDS011;10245;51.344;6.620;2023-02-11T10:51:24;71.38;;;36.25;;
20170;SDS011;10245;51.344;6.620;2023-02-11T10:53:49;70.65;;;34.15;;
20170;SDS011;10245;51.344;6.620;2023-02-11T10:56:35;68.80;;;32.90;;
20170;SDS011;10245;51.344;6.620;2023-02-11T10:59:03;71.22;;;35.72;;
20170;SDS011;10245;51.344;6.620;2023-02-11T11:01:38;80.97;;;36.55;;
20170;SDS011;10245;51.344;6.620;2023-02-11T11:04:09;69.18;;;36.15;;
20170;SDS011;10245;51.344;6.620;2023-02-11T11:06:56;69.68;;;34.90;;
20170;SDS011;10245;51.344;6.620;2023-02-11T11:09:41;73.13;;;35.28;;
20170;SDS011;10245;51.344;6.620;2023-02-11T11:12:12;78.65;;;37.03;;
20170;SDS011;10245;51.344;6.620;2023-02-11T11:14:48;78.00;;;35.92;;
20170;SDS011;10245;51.344;6.620;2023-02-11T11:17:17;71.93;;;35.10;;
20170;SDS011;10245;51.344;6.620;2023-02-11T11:19:42;80.88;;;36.00;;
20170;SDS011;10245;51.344;6.620;2023-02-11T11:22:05;72.43;;;35.35;;
20170;SDS011;10245;51.344;6.620;2023-02-11T11:24:30;69.97;;;33.70;;
20170;SDS011;10245;51.344;6.620;2023-02-11T11:27:02;77.57;;;34.70;;
20170;SDS011;10245;51.344;6.620;2023-02-11T11:29:28;74.10;;;34.80;;
20170;SDS011;10245;51.344;6.620;2023-02-11T11:31:55;75.93;;;35.20;;
20170;SDS011;10245;51.344;6.620;2023-02-11T11:34:26;73.57;;;35.05;;
20170;SDS011;10245;51.344;6.620;2023-02-11T11:36:53;72.18;;;36.53;;
20170;SDS011;10245;51.344;6.620;2023-02-11T11:39:19;69.28;;;34.55;;
20170;SDS011;10245;51.344;6.620;2023-02-11T11:41:51;69.72;;;34.40;;
20170;SDS011;10245;51.344;6.620;2023-02-11T11:44:22;74.75;;;34.70;;
20170;SDS011;10245;51.344;6.620;2023-02-11T11:46:50;73.35;;;35.90;;
20170;SDS011;10245;51.344;6.620;2023-02-11T11:49:44;70.13;;;34.85;;
20170;SDS011;10245;51.344;6.620;2023-02-11T11:52:17;80.95;;;36.15;;
20170;SDS011;10245;51.344;6.620;2023-02-11T11:54:54;77.20;;;35.97;;
20170;SDS011;10245;51.344;6.620;2023-02-11T11:57:25;71.63;;;34.47;;
20170;SDS011;10245;51.344;6.620;2023-02-11T11:59:51;79.88;;;37.10;;
20170;SDS011;10245;51.344;6.620;2023-02-11T12:02:20;73.22;;;36.00;;
20170;SDS011;10245;51.344;6.620;2023-02-11T12:05:02;79.90;;;36.67;;
20170;SDS011;10245;51.344;6.620;2023-02-11T12:10:30;77.93;;;36.80;;
20170;SDS011;10245;51.344;6.620;2023-02-11T12:13:07;72.82;;;35.58;;
20170;SDS011;10245;51.344;6.620;2023-02-11T12:15:42;78.45;;;36.85;;
20170;SDS011;10245;51.344;6.620;2023-02-11T12:18:22;70.03;;;35.80;;
20170;SDS011;10245;51.344;6.620;2023-02-11T12:21:03;71.90;;;36.72;;
20170;SDS011;10245;51.344;6.620;2023-02-11T12:23:56;74.95;;;35.80;;
20170;SDS011;10245;51.344;6.620;2023-02-11T12:26:39;70.07;;;35.78;;
20170;SDS011;10245;51.344;6.620;2023-02-11T12:29:11;69.05;;;34.58;;
20170;SDS011;10245;51.344;6.620;2023-02-11T12:31:50;76.35;;;36.25;;
20170;SDS011;10245;51.344;6.620;2023-02-11T12:37:37;72.35;;;34.53;;
20170;SDS011;10245;51.344;6.620;2023-02-11T12:40:16;74.78;;;37.05;;
20170;SDS011;10245;51.344;6.620;2023-02-11T12:42:49;67.30;;;34.40;;
20170;SDS011;10245;51.344;6.620;2023-02-11T12:45:51;76.10;;;36.05;;
20170;SDS011;10245;51.344;6.620;2023-02-11T12:48:32;72.78;;;35.20;;
20170;SDS011;10245;51.344;6.620;2023-02-11T12:51:24;67.97;;;35.28;;
20170;SDS011;10245;51.344;6.620;2023-02-11T12:54:07;69.97;;;36.63;;
20170;SDS011;10245;51.344;6.620;2023-02-11T12:56:44;73.40;;;38.75;;
20170;SDS011;10245;51.344;6.620;2023-02-11T12:59:15;67.47;;;36.03;;
20170;SDS011;10245;51.344;6.620;2023-02-11T13:01:49;73.75;;;37.38;;
20170;SDS011;10245;51.344;6.620;2023-02-11T13:04:15;73.75;;;37.40;;
20170;SDS011;10245;51.344;6.620;2023-02-11T13:06:43;78.40;;;37.95;;
20170;SDS011;10245;51.344;6.620;2023-02-11T13:09:12;69.88;;;37.65;;
20170;SDS011;10245;51.344;6.620;2023-02-11T13:11:44;74.18;;;38.67;;
20170;SDS011;10245;51.344;6.620;2023-02-11T13:14:14;70.00;;;36.28;;
20170;SDS011;10245;51.344;6.620;2023-02-11T13:16:45;69.70;;;37.40;;
20170;SDS011;10245;51.344;6.620;2023-02-11T13:19:13;66.18;;;35.35;;
20170;SDS011;10245;51.344;6.620;2023-02-11T13:21:53;70.75;;;35.20;;
20170;SDS011;10245;51.344;6.620;2023-02-11T13:24:26;71.53;;;36.47;;
20170;SDS011;10245;51.344;6.620;2023-02-11T13:27:03;63.40;;;35.65;;
20170;SDS011;10245;51.344;6.620;2023-02-11T13:29:41;70.78;;;38.05;;
20170;SDS011;10245;51.344;6.620;2023-02-11T13:33:03;69.40;;;36.78;;
20170;SDS011;10245;51.344;6.620;2023-02-11T13:35:40;67.68;;;37.35;;
20170;SDS011;10245;51.344;6.620;2023-02-11T13:38:16;67.90;;;34.83;;
20170;SDS011;10245;51.344;6.620;2023-02-11T13:40:43;73.82;;;36.67;;
20170;SDS011;10245;51.344;6.620;2023-02-11T13:43:19;72.75;;;37.70;;
20170;SDS011;10245;51.344;6.620;2023-02-11T13:45:46;66.55;;;35.13;;
20170;SDS011;10245;51.344;6.620;2023-02-11T13:48:13;72.35;;;37.60;;
20170;SDS011;10245;51.344;6.620;2023-02-11T13:50:44;65.30;;;35.58;;
20170;SDS011;10245;51.344;6.620;2023-02-11T13:53:10;71.30;;;36.72;;
20170;SDS011;10245;51.344;6.620;2023-02-11T13:55:36;70.20;;;36.47;;
20170;SDS011;10245;51.344;6.620;2023-02-11T13:58:26;69.28;;;36.75;;
20170;SDS011;10245;51.344;6.620;2023-02-11T14:01:00;73.43;;;39.50;;
20170;SDS011;10245;51.344;6.620;2023-02-11T14:03:25;73.93;;;37.33;;
20170;SDS011;10245;51.344;6.620;2023-02-11T14:06:12;70.97;;;36.80;;
20170;SDS011;10245;51.344;6.620;2023-02-11T14:08:57;69.75;;;37.42;;
20170;SDS011;10245;51.344;6.620;2023-02-11T14:11:42;66.97;;;36.20;;
20170;SDS011;10245;51.344;6.620;2023-02-11T14:19:54;68.95;;;36.00;;
20170;SDS011;10245;51.344;6.620;2023-02-11T14:22:19;63.90;;;36.90;;
20170;SDS011;10245;51.344;6.620;2023-02-11T14:24:51;67.03;;;38.08;;
20170;SDS011;10245;51.344;6.620;2023-02-11T14:27:19;73.20;;;37.30;;
20170;SDS011;10245;51.344;6.620;2023-02-11T14:30:05;71.90;;;38.97;;
20170;SDS011;10245;51.344;6.620;2023-02-11T14:32:43;67.28;;;37.35;;
20170;SDS011;10245;51.344;6.620;2023-02-11T14:35:21;75.00;;;38.60;;
20170;SDS011;10245;51.344;6.620;2023-02-11T14:37:53;70.82;;;36.78;;
20170;SDS011;10245;51.344;6.620;2023-02-11T14:40:25;70.20;;;37.88;;
20170;SDS011;10245;51.344;6.620;2023-02-11T14:42:53;65.10;;;36.25;;